Time;durP1;ratioP1;P1;durP2;ratioP2;P2;SDS_P1;SDS_P2;PMS_P1;PMS_P2;Temp;Humidity;BMP_temperature;BMP_pressure;BME280_temperature;BME280_humidity;BME280_pressure;Samples;Min_cycle;Max_cycle;Signal;HPM_P1;HPM_P2
2021/12/12 00:00:29;;;;;;;16.47;15.57;;;6.00;99.90;;;;;;5051576;28;20453;-71
2021/12/12 00:03:02;;;;;;;16.43;15.30;;;6.00;99.90;;;;;;5051406;28;20488;-71
2021/12/12 00:05:36;;;;;;;14.77;14.00;;;6.00;99.90;;;;;;5051181;28;20475;-71
2021/12/12 00:08:06;;;;;;;15.27;14.27;;;6.00;99.90;;;;;;5050925;28;20471;-71
2021/12/12 00:10:36;;;;;;;15.80;14.70;;;6.00;99.90;;;;;;5051343;28;20438;-71
2021/12/12 00:13:08;;;;;;;15.50;14.70;;;5.90;99.90;;;;;;5051232;28;20453;-69
2021/12/12 00:15:35;;;;;;;16.20;15.10;;;6.00;99.90;;;;;;5051376;28;20510;-71
2021/12/12 00:18:04;;;;;;;15.03;14.10;;;6.00;99.90;;;;;;5050831;28;20688;-71
2021/12/12 00:20:31;;;;;;;15.30;14.40;;;6.10;99.90;;;;;;5051885;28;20455;-70
2021/12/12 00:22:59;;;;;;;15.37;14.47;;;6.10;99.90;;;;;;5055905;28;20484;-70
2021/12/12 00:25:28;;;;;;;15.23;14.37;;;6.10;99.90;;;;;;5068430;28;20473;-69
2021/12/12 00:27:55;;;;;;;17.30;16.10;;;6.10;99.90;;;;;;5068699;28;20706;-70
2021/12/12 00:30:22;;;;;;;17.70;16.33;;;6.00;99.90;;;;;;5059860;28;20450;-70
2021/12/12 00:32:50;;;;;;;18.37;17.17;;;5.90;99.90;;;;;;5050940;28;20558;-70
2021/12/12 00:35:19;;;;;;;17.83;16.23;;;5.80;99.90;;;;;;5050946;28;20460;-70
2021/12/12 00:37:46;;;;;;;17.67;16.57;;;5.80;99.90;;;;;;5050398;28;21292;-70
2021/12/12 00:40:23;;;;;;;18.83;17.30;;;5.70;99.90;;;;;;5050595;28;20456;-69
2021/12/12 00:42:53;;;;;;;18.43;17.03;;;5.60;99.90;;;;;;5050639;28;20456;-70
2021/12/12 00:45:21;;;;;;;19.57;17.93;;;5.70;99.90;;;;;;5050691;28;20448;-70
2021/12/12 00:47:48;;;;;;;18.63;17.23;;;5.60;99.90;;;;;;5050028;28;21014;-69
2021/12/12 00:50:24;;;;;;;19.10;17.63;;;5.70;99.90;;;;;;5050763;28;20447;-70
2021/12/12 00:52:52;;;;;;;18.97;17.57;;;5.70;99.90;;;;;;5050772;28;20452;-71
2021/12/12 00:55:19;;;;;;;19.27;17.90;;;5.80;99.90;;;;;;5050282;28;20457;-70
2021/12/12 00:57:50;;;;;;;19.53;17.90;;;5.90;99.90;;;;;;5050343;28;20905;-71
2021/12/12 01:00:19;;;;;;;18.50;16.90;;;5.90;99.90;;;;;;5050574;28;20458;-71
2021/12/12 01:02:46;;;;;;;19.73;18.20;;;5.90;99.90;;;;;;5050230;28;20457;-72
2021/12/12 01:05:13;;;;;;;17.70;16.50;;;6.00;99.90;;;;;;5050211;28;20454;-72
2021/12/12 01:07:44;;;;;;;18.60;17.10;;;5.90;99.90;;;;;;5050601;28;20444;-71
2021/12/12 01:10:16;;;;;;;17.70;16.50;;;6.00;99.90;;;;;;5052529;28;20459;-71
2021/12/12 01:12:43;;;;;;;19.07;17.57;;;6.00;99.90;;;;;;5054422;28;20462;-70
2021/12/12 01:15:16;;;;;;;18.87;17.47;;;6.00;99.90;;;;;;5054371;28;20460;-69
2021/12/12 01:17:49;;;;;;;18.37;17.17;;;6.00;99.90;;;;;;5054380;28;20488;-70
2021/12/12 01:20:21;;;;;;;19.27;17.83;;;6.00;99.90;;;;;;5054276;28;20451;-70
2021/12/12 01:22:53;;;;;;;18.20;16.77;;;6.00;99.90;;;;;;5054019;28;20498;-72
2021/12/12 01:25:23;;;;;;;18.73;17.20;;;5.90;99.90;;;;;;5054260;28;20836;-70
2021/12/12 01:27:52;;;;;;;19.27;17.87;;;5.90;99.90;;;;;;5054073;28;20432;-70
2021/12/12 01:30:19;;;;;;;17.80;16.47;;;5.90;99.90;;;;;;5054120;28;20455;-72
2021/12/12 01:32:52;;;;;;;18.10;16.70;;;5.80;99.90;;;;;;5054166;28;20456;-72
2021/12/12 01:35:20;;;;;;;17.40;16.10;;;5.80;99.90;;;;;;5053826;28;20449;-72
2021/12/12 01:38:51;;;;;;;18.10;17.00;;;5.80;99.90;;;;;;5054146;28;20893;-72
2021/12/12 01:40:40;;;;;;;19.60;17.83;;;5.90;99.90;;;;;;5053917;28;20439;-72
2021/12/12 01:43:18;;;;;;;17.53;16.13;;;6.00;99.90;;;;;;5054077;28;20455;-72
2021/12/12 01:45:49;;;;;;;18.50;16.87;;;6.00;99.90;;;;;;5053852;28;20476;-72
2021/12/12 01:48:20;;;;;;;18.60;17.40;;;6.00;99.90;;;;;;5053732;28;20536;-71
2021/12/12 01:50:49;;;;;;;17.97;16.73;;;6.00;99.90;;;;;;5053723;28;20447;-72
2021/12/12 01:53:22;;;;;;;19.27;18.07;;;6.00;99.90;;;;;;5053929;28;20455;-71
2021/12/12 01:55:52;;;;;;;17.90;16.50;;;6.00;99.90;;;;;;5053688;28;20447;-72
2021/12/12 01:58:24;;;;;;;18.77;17.37;;;6.00;99.90;;;;;;5053304;28;20490;-71
2021/12/12 02:00:57;;;;;;;18.47;17.23;;;6.00;99.90;;;;;;5053757;28;20451;-72
2021/12/12 02:03:28;;;;;;;16.87;15.80;;;5.90;99.90;;;;;;5053699;28;20448;-71
2021/12/12 02:05:56;;;;;;;17.67;16.60;;;5.80;99.90;;;;;;5053372;28;20448;-71
2021/12/12 02:08:28;;;;;;;15.53;14.67;;;5.90;99.90;;;;;;5053504;28;20451;-72
2021/12/12 02:10:59;;;;;;;16.87;15.77;;;6.00;99.90;;;;;;5053610;28;20445;-71
2021/12/12 02:13:28;;;;;;;15.70;14.70;;;6.00;99.90;;;;;;5053512;28;20459;-71
2021/12/12 02:15:58;;;;;;;16.50;15.50;;;6.00;99.90;;;;;;5053397;28;20459;-71
2021/12/12 02:18:31;;;;;;;16.20;15.20;;;5.90;99.90;;;;;;5053144;28;20484;-72
2021/12/12 02:21:10;;;;;;;16.50;15.57;;;5.90;99.90;;;;;;5052605;28;20459;-72
2021/12/12 02:23:56;;;;;;;17.17;16.10;;;5.80;99.90;;;;;;5053323;28;20658;-72
2021/12/12 02:37:24;;;;;;;15.73;14.80;;;5.80;99.90;;;;;;5052826;28;21050;-71
2021/12/12 02:39:52;;;;;;;14.90;14.00;;;5.80;99.90;;;;;;5052914;28;20449;-71
2021/12/12 02:42:21;;;;;;;16.60;15.43;;;5.70;99.90;;;;;;5052793;28;20448;-71
2021/12/12 02:44:53;;;;;;;14.50;13.50;;;5.70;99.90;;;;;;5053236;28;20514;-71
2021/12/12 02:47:24;;;;;;;14.10;13.40;;;5.70;99.90;;;;;;5052301;28;20487;-71
2021/12/12 02:50:07;;;;;;;14.63;13.83;;;5.70;99.90;;;;;;5052663;28;20454;-72
2021/12/12 02:52:34;;;;;;;15.03;14.03;;;5.60;99.90;;;;;;5052893;28;20842;-72
2021/12/12 02:55:08;;;;;;;14.20;13.40;;;5.60;99.90;;;;;;5052305;28;20962;-72
2021/12/12 02:57:35;;;;;;;14.17;13.37;;;5.60;99.90;;;;;;5052504;28;20487;-71
2021/12/12 03:00:02;;;;;;;13.20;12.47;;;5.50;99.90;;;;;;5052532;28;20462;-71
2021/12/12 03:02:39;;;;;;;13.20;12.40;;;5.50;99.90;;;;;;5052264;28;20531;-72
2021/12/12 03:05:07;;;;;;;12.80;12.10;;;5.60;99.90;;;;;;5052803;28;20440;-71
2021/12/12 03:07:34;;;;;;;12.90;12.30;;;5.60;99.90;;;;;;5052176;28;20458;-76
2021/12/12 03:10:08;;;;;;;13.80;13.00;;;5.70;99.90;;;;;;5052190;28;20449;-75
2021/12/12 03:12:37;;;;;;;13.47;12.70;;;5.80;99.90;;;;;;5052271;28;20458;-76
2021/12/12 03:15:08;;;;;;;13.40;12.40;;;5.80;99.90;;;;;;5052386;28;20455;-71
2021/12/12 03:17:38;;;;;;;12.90;12.20;;;5.90;99.90;;;;;;5051834;28;20493;-72
2021/12/12 03:20:11;;;;;;;13.10;12.40;;;5.80;99.90;;;;;;5052140;28;20843;-72
2021/12/12 03:22:39;;;;;;;13.83;13.03;;;5.80;99.90;;;;;;5052344;28;20469;-73
2021/12/12 03:25:08;;;;;;;14.37;13.33;;;5.70;99.90;;;;;;5052179;28;20454;-72
2021/12/12 03:27:35;;;;;;;12.60;12.00;;;5.80;99.90;;;;;;5051565;28;20440;-72
2021/12/12 03:30:05;;;;;;;13.53;12.73;;;5.80;99.90;;;;;;5052059;28;20457;-71
2021/12/12 03:32:32;;;;;;;14.30;13.37;;;5.60;99.90;;;;;;5051769;28;20452;-71
2021/12/12 03:34:59;;;;;;;12.80;12.10;;;5.60;99.90;;;;;;5051808;28;20495;-71
2021/12/12 03:37:30;;;;;;;14.17;13.33;;;5.50;99.90;;;;;;5051872;28;20863;-71
2021/12/12 03:39:59;;;;;;;14.53;13.53;;;5.40;99.90;;;;;;5051989;28;20856;-72
2021/12/12 03:42:30;;;;;;;12.97;12.30;;;5.30;99.90;;;;;;5051860;28;20834;-71
2021/12/12 03:44:58;;;;;;;14.00;13.30;;;5.10;99.90;;;;;;5051657;28;20479;-71
2021/12/12 03:47:28;;;;;;;14.70;13.63;;;5.00;99.90;;;;;;5051378;28;20475;-71
2021/12/12 03:49:56;;;;;;;14.57;13.67;;;4.90;99.90;;;;;;5051555;28;20457;-71
2021/12/12 03:52:25;;;;;;;14.10;13.33;;;4.80;99.90;;;;;;5051399;28;20854;-71
2021/12/12 03:54:52;;;;;;;15.00;14.10;;;4.80;99.90;;;;;;5051352;28;20530;-71
2021/12/12 03:57:21;;;;;;;13.97;13.13;;;4.90;99.90;;;;;;5051299;28;20956;-71
2021/12/12 03:59:50;;;;;;;15.17;13.93;;;4.90;99.90;;;;;;5051184;28;20459;-71
2021/12/12 04:02:17;;;;;;;12.90;12.40;;;5.10;99.90;;;;;;5051105;28;20455;-72
2021/12/12 04:04:45;;;;;;;15.17;14.17;;;5.10;99.90;;;;;;5050985;28;20459;-72
2021/12/12 04:07:14;;;;;;;15.03;14.23;;;5.10;99.90;;;;;;5051344;28;20451;-72
2021/12/12 04:09:42;;;;;;;14.90;13.80;;;5.20;99.90;;;;;;5051228;28;20816;-72
2021/12/12 04:12:12;;;;;;;15.70;14.63;;;5.20;99.90;;;;;;5051094;28;20475;-72
2021/12/12 04:14:39;;;;;;;15.23;14.33;;;5.20;99.90;;;;;;5050835;28;20450;-72
2021/12/12 04:17:11;;;;;;;15.73;14.67;;;5.20;99.90;;;;;;5050754;28;20475;-72
2021/12/12 04:19:38;;;;;;;16.40;15.40;;;5.10;99.90;;;;;;5050793;28;20491;-72
2021/12/12 04:22:06;;;;;;;16.13;15.13;;;4.90;99.90;;;;;;5051110;28;20448;-72
2021/12/12 04:24:38;;;;;;;16.60;15.47;;;4.60;99.90;;;;;;5050924;28;20444;-72
2021/12/12 04:27:07;;;;;;;15.50;14.70;;;4.40;99.90;;;;;;5050939;28;20796;-71
2021/12/12 04:29:36;;;;;;;16.80;15.40;;;4.10;99.90;;;;;;5050575;28;20826;-70
2021/12/12 04:32:07;;;;;;;15.70;14.80;;;3.90;99.90;;;;;;5050772;28;20463;-70
2021/12/12 04:34:37;;;;;;;17.03;15.50;;;3.70;99.90;;;;;;5050837;28;20452;-72
2021/12/12 04:37:04;;;;;;;17.33;16.33;;;3.50;99.90;;;;;;5050586;28;20450;-71
2021/12/12 04:39:34;;;;;;;17.40;16.43;;;3.30;99.90;;;;;;5050759;28;20491;-73
2021/12/12 04:42:07;;;;;;;17.50;16.30;;;3.20;99.90;;;;;;5050942;28;20454;-71
2021/12/12 04:44:37;;;;;;;16.80;15.77;;;3.10;99.90;;;;;;5050199;28;20454;-71
2021/12/12 04:50:10;;;;;;;17.33;16.23;;;3.10;99.90;;;;;;5050748;28;20522;-71
2021/12/12 04:52:44;;;;;;;16.33;15.53;;;2.90;99.90;;;;;;5059942;28;20456;-72
2021/12/12 04:55:15;;;;;;;17.57;16.37;;;2.90;99.90;;;;;;5061746;28;20443;-72
2021/12/12 04:57:46;;;;;;;16.97;15.93;;;2.80;99.90;;;;;;5068562;28;20450;-71
2021/12/12 05:00:17;;;;;;;17.57;16.43;;;2.80;99.90;;;;;;5068822;28;20449;-71
2021/12/12 05:02:53;;;;;;;17.37;16.17;;;2.80;99.90;;;;;;5053419;28;20443;-72
2021/12/12 05:05:26;;;;;;;16.57;15.70;;;2.70;99.90;;;;;;5050395;28;20934;-72
2021/12/12 05:08:00;;;;;;;17.00;15.90;;;2.70;99.90;;;;;;5050152;28;20456;-72
2021/12/12 05:10:32;;;;;;;16.70;15.70;;;2.60;99.90;;;;;;5050197;28;20476;-72
2021/12/12 05:13:06;;;;;;;16.83;15.83;;;2.60;99.90;;;;;;5050215;28;20464;-70
2021/12/12 05:15:36;;;;;;;17.63;16.40;;;2.50;99.90;;;;;;5050106;28;20449;-70
2021/12/12 05:18:08;;;;;;;16.97;15.80;;;2.50;99.90;;;;;;5050038;28;20833;-71
2021/12/12 05:20:40;;;;;;;17.67;16.50;;;2.50;99.90;;;;;;5050402;28;20445;-72
2021/12/12 05:23:11;;;;;;;16.00;15.10;;;2.40;99.90;;;;;;5050130;28;20592;-71
2021/12/12 05:25:46;;;;;;;16.57;15.73;;;2.30;99.90;;;;;;5050125;28;20448;-72
2021/12/12 05:28:17;;;;;;;17.60;16.50;;;2.30;99.90;;;;;;5050204;28;20435;-71
2021/12/12 05:30:45;;;;;;;17.20;16.13;;;2.20;99.90;;;;;;5050065;28;20807;-71
2021/12/12 05:33:16;;;;;;;17.47;16.40;;;2.10;99.90;;;;;;5050070;28;20440;-77
2021/12/12 05:35:44;;;;;;;17.23;16.13;;;2.20;99.90;;;;;;5050204;28;20460;-71
2021/12/12 05:38:13;;;;;;;17.67;16.47;;;2.40;99.90;;;;;;5049627;28;20482;-71
2021/12/12 05:40:42;;;;;;;16.57;15.67;;;2.50;99.90;;;;;;5049807;28;20458;-72
2021/12/12 05:43:09;;;;;;;16.43;15.43;;;2.70;99.90;;;;;;5049964;28;20472;-71
2021/12/12 05:45:38;;;;;;;16.10;15.00;;;2.80;99.90;;;;;;5050317;28;20968;-72
2021/12/12 05:48:06;;;;;;;15.83;14.80;;;2.90;99.90;;;;;;5050370;28;20470;-71
2021/12/12 05:50:35;;;;;;;16.13;15.00;;;2.90;99.90;;;;;;5050126;28;20446;-71
2021/12/12 05:53:03;;;;;;;15.80;14.80;;;3.00;99.90;;;;;;5049645;28;20450;-71
2021/12/12 05:55:32;;;;;;;15.53;14.63;;;3.10;99.90;;;;;;5049944;28;20452;-72
2021/12/12 05:58:01;;;;;;;15.70;14.60;;;3.10;99.90;;;;;;5052660;28;20459;-72
2021/12/12 06:00:30;;;;;;;15.63;14.63;;;3.20;99.90;;;;;;5053634;28;20804;-72
2021/12/12 06:02:58;;;;;;;14.43;13.73;;;3.20;99.90;;;;;;5053417;28;20449;-73
2021/12/12 06:05:25;;;;;;;15.30;14.47;;;3.30;99.90;;;;;;5053660;28;20455;-72
2021/12/12 06:07:55;;;;;;;14.50;13.60;;;3.40;99.90;;;;;;5053546;28;20461;-73
2021/12/12 06:10:23;;;;;;;15.53;14.47;;;3.30;99.90;;;;;;5053292;28;20838;-73
2021/12/12 06:12:50;;;;;;;14.53;13.27;;;3.40;99.90;;;;;;5053342;28;20979;-71
2021/12/12 06:15:20;;;;;;;15.67;14.67;;;3.40;99.90;;;;;;5053305;28;20464;-71
2021/12/12 06:17:48;;;;;;;14.17;13.40;;;3.40;99.90;;;;;;5053307;28;20953;-70
2021/12/12 06:20:16;;;;;;;13.60;12.90;;;3.50;99.90;;;;;;5052994;28;20504;-71
2021/12/12 06:22:44;;;;;;;13.70;12.90;;;3.50;99.90;;;;;;5053133;28;20473;-71
2021/12/12 06:25:12;;;;;;;13.77;13.07;;;3.60;99.90;;;;;;5053148;28;20444;-70
2021/12/12 06:27:40;;;;;;;14.00;13.30;;;3.60;99.90;;;;;;5053403;28;20806;-72
2021/12/12 06:30:10;;;;;;;15.13;14.27;;;3.60;99.90;;;;;;5053017;28;20787;-72
2021/12/12 06:32:37;;;;;;;14.10;13.40;;;3.60;99.90;;;;;;5052915;28;20453;-75
2021/12/12 06:35:07;;;;;;;14.53;13.53;;;3.60;99.90;;;;;;5052627;28;20786;-75
2021/12/12 06:37:34;;;;;;;14.13;13.33;;;3.60;99.90;;;;;;5053355;28;20468;-70
2021/12/12 06:40:01;;;;;;;14.27;13.47;;;3.50;99.90;;;;;;5052771;28;20812;-70
2021/12/12 06:42:30;;;;;;;14.67;13.77;;;3.50;99.90;;;;;;5052976;28;20483;-70
2021/12/12 06:44:57;;;;;;;15.80;14.57;;;3.40;99.90;;;;;;5052636;28;20452;-69
2021/12/12 06:47:24;;;;;;;15.33;14.40;;;3.20;99.90;;;;;;5052285;28;20484;-70
2021/12/12 06:49:51;;;;;;;16.47;15.37;;;3.10;99.90;;;;;;5052560;28;20445;-70
2021/12/12 06:52:20;;;;;;;16.43;15.33;;;3.00;99.90;;;;;;5052532;28;20448;-70
2021/12/12 06:54:47;;;;;;;17.27;16.27;;;2.90;99.90;;;;;;5052434;28;20446;-70
2021/12/12 06:57:16;;;;;;;17.97;16.67;;;2.80;99.90;;;;;;5052270;28;20444;-69
2021/12/12 06:59:47;;;;;;;17.53;16.53;;;2.70;99.90;;;;;;5052185;28;20840;-71
2021/12/12 07:02:14;;;;;;;16.80;15.70;;;2.70;99.90;;;;;;5052326;28;20456;-73
2021/12/12 07:04:44;;;;;;;16.00;15.00;;;2.70;99.90;;;;;;5052435;28;20490;-73
2021/12/12 07:07:13;;;;;;;17.07;16.07;;;2.60;99.90;;;;;;5051918;28;20463;-73
2021/12/12 07:09:41;;;;;;;16.30;15.33;;;2.50;99.90;;;;;;5051957;28;20458;-73
2021/12/12 07:12:12;;;;;;;18.30;17.10;;;2.40;99.90;;;;;;5052492;28;20451;-73
2021/12/12 07:14:39;;;;;;;17.90;16.73;;;2.30;99.90;;;;;;5052472;28;20451;-73
2021/12/12 07:17:09;;;;;;;17.33;16.03;;;2.20;99.90;;;;;;5051771;28;20454;-73
2021/12/12 07:19:37;;;;;;;16.80;15.70;;;2.10;99.90;;;;;;5052045;28;20490;-73
2021/12/12 07:22:05;;;;;;;18.47;17.13;;;2.10;99.90;;;;;;5052130;28;20479;-73
2021/12/12 07:24:33;;;;;;;19.07;17.80;;;2.00;99.90;;;;;;5052416;28;20785;-73
2021/12/12 07:27:00;;;;;;;19.23;18.13;;;2.00;99.90;;;;;;5051745;28;20448;-73
2021/12/12 07:29:28;;;;;;;20.50;19.03;;;2.00;99.90;;;;;;5051771;28;20444;-73
2021/12/12 07:31:56;;;;;;;19.10;17.30;;;2.00;99.90;;;;;;5051648;28;20498;-73
2021/12/12 07:34:24;;;;;;;19.63;17.70;;;2.10;99.90;;;;;;5051693;28;20536;-72
2021/12/12 07:36:54;;;;;;;19.77;18.20;;;2.10;99.90;;;;;;5051554;28;20450;-72
2021/12/12 07:39:23;;;;;;;19.33;17.67;;;2.30;99.90;;;;;;5051806;28;20829;-73
2021/12/12 07:41:52;;;;;;;19.10;17.60;;;2.60;99.90;;;;;;5051870;28;20490;-72
2021/12/12 07:44:22;;;;;;;20.07;18.50;;;3.00;99.90;;;;;;5051792;28;20460;-73
2021/12/12 07:46:50;;;;;;;18.17;16.77;;;3.30;99.90;;;;;;5051352;28;20635;-73
2021/12/12 07:49:21;;;;;;;18.10;16.73;;;3.50;99.90;;;;;;5051464;28;20518;-73
2021/12/12 07:51:50;;;;;;;16.80;15.80;;;3.90;99.90;;;;;;5051354;28;20458;-73
2021/12/12 07:54:17;;;;;;;16.40;15.40;;;4.10;99.90;;;;;;5051103;28;20958;-72
2021/12/12 07:56:45;;;;;;;17.50;16.30;;;4.50;99.90;;;;;;5051331;28;20826;-72
2021/12/12 07:59:14;;;;;;;17.40;16.40;;;4.60;99.90;;;;;;5051108;28;20487;-72
2021/12/12 08:01:43;;;;;;;17.13;16.03;;;4.80;99.90;;;;;;5051212;28;20560;-72
2021/12/12 08:04:12;;;;;;;15.50;14.60;;;4.90;99.90;;;;;;5051586;28;20455;-72
2021/12/12 08:06:39;;;;;;;15.53;14.73;;;5.10;99.90;;;;;;5051396;28;20452;-72
2021/12/12 08:09:08;;;;;;;16.67;15.47;;;5.30;99.90;;;;;;5051019;28;20450;-71
2021/12/12 08:11:36;;;;;;;17.03;15.70;;;5.40;99.90;;;;;;5051275;28;20449;-71
2021/12/12 08:14:05;;;;;;;16.60;15.60;;;5.60;99.90;;;;;;5051101;28;20454;-72
2021/12/12 08:16:32;;;;;;;16.30;15.17;;;5.90;99.90;;;;;;5050964;28;20449;-73
2021/12/12 08:18:59;;;;;;;15.20;14.10;;;6.30;99.90;;;;;;5050376;28;20483;-73
2021/12/12 08:21:33;;;;;;;16.53;15.33;;;6.70;99.90;;;;;;5050648;28;20454;-73
2021/12/12 08:24:01;;;;;;;14.80;14.00;;;7.00;99.90;;;;;;5050762;28;20884;-73
2021/12/12 08:26:29;;;;;;;16.47;15.37;;;7.10;99.90;;;;;;5050817;28;20448;-73
2021/12/12 08:28:56;;;;;;;148.23;102.57;;;7.90;99.90;;;;;;5050623;28;20452;-72
2021/12/12 08:31:23;;;;;;;14.03;13.27;;;8.40;99.90;;;;;;5050340;28;20460;-72
2021/12/12 08:33:50;;;;;;;14.50;13.60;;;8.70;99.90;;;;;;5050594;28;20960;-71
2021/12/12 08:36:17;;;;;;;14.00;13.10;;;7.90;99.90;;;;;;5050734;28;20459;-72
2021/12/12 08:38:44;;;;;;;13.07;12.47;;;6.90;99.90;;;;;;5050389;28;20455;-71
2021/12/12 08:41:11;;;;;;;14.43;13.60;;;6.10;99.90;;;;;;5050443;28;20818;-71
2021/12/12 08:43:40;;;;;;;13.83;13.03;;;5.70;99.90;;;;;;5051012;28;20455;-72
2021/12/12 08:46:09;;;;;;;13.87;13.00;;;5.50;99.90;;;;;;5050428;28;20970;-72
2021/12/12 08:48:44;;;;;;;13.67;12.97;;;5.20;99.90;;;;;;5050716;28;20436;-71
2021/12/12 08:51:14;;;;;;;13.77;13.07;;;5.10;99.90;;;;;;5050754;28;20450;-73
2021/12/12 08:53:44;;;;;;;13.13;12.43;;;4.90;99.90;;;;;;5050680;28;20459;-72
2021/12/12 08:56:19;;;;;;;13.70;12.90;;;4.80;99.90;;;;;;5050799;28;20547;-72
2021/12/12 08:58:48;;;;;;;14.00;13.10;;;4.70;99.90;;;;;;5050370;28;20461;-72
2021/12/12 09:01:18;;;;;;;12.97;12.17;;;4.70;99.90;;;;;;5050713;28;20451;-72
2021/12/12 09:03:51;;;;;;;12.70;12.10;;;4.60;99.90;;;;;;5050446;28;20462;-72
2021/12/12 09:06:20;;;;;;;12.10;11.33;;;4.60;99.90;;;;;;5050394;28;20460;-72
2021/12/12 09:08:52;;;;;;;12.90;12.07;;;4.60;99.90;;;;;;5050283;28;20931;-73
2021/12/12 09:11:25;;;;;;;13.30;12.60;;;4.60;99.90;;;;;;5050382;28;20459;-72
2021/12/12 09:14:06;;;;;;;12.90;12.20;;;4.60;99.90;;;;;;5050134;28;20564;-72
2021/12/12 09:16:38;;;;;;;12.50;11.90;;;4.80;99.90;;;;;;5050437;28;20452;-73
2021/12/12 09:19:08;;;;;;;13.43;12.73;;;4.90;99.90;;;;;;5050308;28;20849;-72
2021/12/12 09:21:48;;;;;;;12.80;12.13;;;5.10;99.90;;;;;;5050246;28;20465;-72
2021/12/12 09:24:43;;;;;;;13.17;12.37;;;5.20;99.90;;;;;;5050572;28;20475;-73
2021/12/12 09:27:11;;;;;;;13.30;12.60;;;5.30;99.90;;;;;;5050462;28;20937;-73
2021/12/12 09:29:46;;;;;;;13.17;12.57;;;5.20;99.90;;;;;;5050166;28;20436;-73
2021/12/12 09:32:17;;;;;;;12.50;11.90;;;5.10;99.90;;;;;;5053986;28;20446;-72
2021/12/12 09:34:50;;;;;;;12.63;11.70;;;5.10;99.90;;;;;;5054434;28;20443;-70
2021/12/12 09:37:22;;;;;;;12.40;11.70;;;5.00;99.90;;;;;;5060597;28;20449;-69
2021/12/12 09:39:54;;;;;;;12.43;11.83;;;5.00;99.90;;;;;;5072252;28;20477;-69
2021/12/12 09:42:36;;;;;;;13.37;12.47;;;5.10;99.90;;;;;;5072142;28;20799;-70
2021/12/12 09:45:32;;;;;;;13.77;13.07;;;5.10;99.90;;;;;;5063233;28;20508;-71
2021/12/12 09:51:38;;;;;;;12.30;11.70;;;5.40;99.90;;;;;;5054030;28;20418;-72
2021/12/12 09:54:27;;;;;;;11.70;11.10;;;5.50;99.90;;;;;;5053794;28;20490;-73
2021/12/12 09:56:58;;;;;;;11.03;10.43;;;5.70;99.90;;;;;;5053671;28;20451;-71
2021/12/12 09:59:39;;;;;;;11.23;10.73;;;5.90;99.90;;;;;;5061194;28;20474;-72
2021/12/12 10:02:17;;;;;;;11.40;10.83;;;6.30;99.90;;;;;;5071980;28;20506;-72
2021/12/12 10:04:53;;;;;;;10.87;10.13;;;6.60;99.90;;;;;;5071167;28;20879;-73
2021/12/12 10:07:30;;;;;;;12.13;11.43;;;6.70;99.90;;;;;;5070717;28;20457;-72
2021/12/12 10:10:00;;;;;;;11.50;11.00;;;6.50;99.90;;;;;;5070389;28;20442;-72
2021/12/12 10:12:30;;;;;;;11.97;11.43;;;6.20;99.90;;;;;;5072902;28;20451;-72
2021/12/12 10:15:09;;;;;;;12.80;12.10;;;6.00;99.90;;;;;;5070186;28;20437;-72
2021/12/12 10:17:42;;;;;;;11.57;11.07;;;6.00;99.90;;;;;;5069970;28;20442;-73
2021/12/12 10:20:12;;;;;;;12.03;11.43;;;6.00;99.90;;;;;;5072616;28;20486;-72
2021/12/12 10:22:54;;;;;;;12.30;11.60;;;6.00;99.90;;;;;;5072602;28;20464;-72
2021/12/12 10:25:27;;;;;;;11.17;10.67;;;6.10;99.90;;;;;;5071101;28;20524;-72
2021/12/12 10:27:58;;;;;;;11.67;10.97;;;6.50;99.90;;;;;;5072572;28;20743;-73
2021/12/12 10:30:28;;;;;;;12.33;11.60;;;6.60;99.90;;;;;;5072462;28;20440;-72
2021/12/12 10:33:05;;;;;;;12.37;11.57;;;6.70;99.90;;;;;;5069884;28;20438;-72
2021/12/12 10:35:37;;;;;;;11.67;10.97;;;6.60;99.90;;;;;;5072110;28;20449;-74
2021/12/12 10:38:08;;;;;;;10.90;10.40;;;6.50;99.90;;;;;;5072347;28;20449;-73
2021/12/12 10:40:37;;;;;;;10.97;10.47;;;6.50;99.90;;;;;;5069735;28;20480;-72
2021/12/12 10:43:09;;;;;;;12.37;11.47;;;6.50;99.90;;;;;;5071390;28;20813;-71
2021/12/12 10:45:40;;;;;;;11.57;11.00;;;6.60;99.90;;;;;;5069787;28;20458;-71
2021/12/12 10:48:12;;;;;;;11.83;11.23;;;6.60;99.90;;;;;;5071845;28;20976;-73
2021/12/12 10:50:44;;;;;;;11.53;10.70;;;6.70;99.90;;;;;;5070055;28;20454;-73
2021/12/12 10:53:21;;;;;;;10.60;9.90;;;6.80;99.90;;;;;;5071775;28;20458;-74
2021/12/12 10:55:53;;;;;;;10.57;10.13;;;6.90;99.90;;;;;;5071977;28;20453;-71
2021/12/12 10:58:25;;;;;;;10.60;10.10;;;7.10;99.90;;;;;;5072457;28;20509;-72
2021/12/12 11:00:55;;;;;;;10.90;10.40;;;7.30;99.90;;;;;;5071984;28;20482;-70
2021/12/12 11:03:27;;;;;;;11.73;11.13;;;7.20;99.90;;;;;;5071538;28;20799;-73
2021/12/12 11:05:58;;;;;;;10.13;9.67;;;7.30;99.90;;;;;;5071908;28;20439;-73
2021/12/12 11:08:31;;;;;;;11.13;10.33;;;7.40;99.90;;;;;;5071428;28;20853;-73
2021/12/12 11:11:00;;;;;;;10.67;10.10;;;7.20;99.90;;;;;;5068935;28;20451;-72
2021/12/12 11:13:34;;;;;;;11.10;10.60;;;7.30;99.90;;;;;;5071041;28;20441;-72
2021/12/12 11:16:06;;;;;;;10.00;9.60;;;7.30;99.90;;;;;;5071362;28;20450;-70
2021/12/12 11:18:42;;;;;;;10.20;9.60;;;7.40;99.90;;;;;;5071023;28;20450;-72
2021/12/12 11:21:13;;;;;;;9.73;9.23;;;7.50;99.90;;;;;;5071611;28;20864;-73
2021/12/12 11:23:50;;;;;;;9.73;9.27;;;7.60;99.90;;;;;;5071192;28;20464;-73
2021/12/12 11:26:20;;;;;;;10.30;9.70;;;7.70;99.90;;;;;;5069182;28;20445;-73
2021/12/12 11:28:52;;;;;;;10.80;10.30;;;7.70;99.90;;;;;;5071175;28;20530;-73
2021/12/12 11:31:24;;;;;;;10.67;10.00;;;8.00;99.90;;;;;;5068782;28;20557;-72
2021/12/12 11:33:54;;;;;;;9.83;9.40;;;7.90;99.90;;;;;;5071169;28;20435;-72
2021/12/12 11:36:27;;;;;;;10.67;9.97;;;7.80;99.90;;;;;;5070972;28;20458;-73
2021/12/12 11:39:04;;;;;;;10.20;9.70;;;7.90;99.90;;;;;;5071173;28;20448;-73
2021/12/12 11:41:38;;;;;;;11.43;10.77;;;7.80;99.90;;;;;;5070689;28;20859;-72
2021/12/12 11:44:14;;;;;;;11.03;10.50;;;8.10;99.90;;;;;;5071012;28;20949;-72
2021/12/12 11:46:49;;;;;;;10.17;9.60;;;8.10;99.90;;;;;;5072287;28;20482;-72
2021/12/12 11:49:22;;;;;;;10.20;9.80;;;8.00;99.90;;;;;;5075132;28;20551;-73
2021/12/12 11:51:52;;;;;;;10.40;9.80;;;8.00;99.90;;;;;;5079454;28;20941;-73
2021/12/12 11:54:33;;;;;;;10.50;10.10;;;8.20;99.90;;;;;;5074751;28;20438;-72
2021/12/12 11:57:06;;;;;;;10.97;10.47;;;8.00;99.90;;;;;;5071938;28;20442;-74
2021/12/12 11:59:41;;;;;;;10.47;9.97;;;8.00;99.90;;;;;;5079148;28;20449;-76
2021/12/12 12:02:27;;;;;;;9.07;8.77;;;8.00;99.90;;;;;;5076482;28;20466;-75
2021/12/12 12:05:07;;;;;;;8.50;8.10;;;8.00;99.90;;;;;;5059617;28;20479;-75
2021/12/12 12:07:50;;;;;;;8.70;8.40;;;7.90;99.90;;;;;;5081483;28;20456;-72
2021/12/12 12:10:27;;;;;;;9.93;9.40;;;7.80;99.90;;;;;;5076560;28;20438;-71
2021/12/12 12:13:05;;;;;;;9.80;9.10;;;7.80;99.90;;;;;;5081396;28;20434;-71
2021/12/12 12:15:40;;;;;;;10.00;9.40;;;8.20;99.90;;;;;;5081647;28;20442;-74
2021/12/12 12:18:18;;;;;;;9.80;9.40;;;8.20;99.90;;;;;;5081272;28;20470;-75
2021/12/12 12:20:55;;;;;;;10.10;9.40;;;8.60;99.90;;;;;;5077407;28;21003;-74
2021/12/12 12:23:42;;;;;;;9.67;9.17;;;8.70;99.90;;;;;;5072509;28;20455;-72
2021/12/12 12:29:05;;;;;;;11.87;10.70;;;8.70;99.90;;;;;;5076607;28;20951;-71
2021/12/12 12:32:41;;;;;;;10.00;9.50;;;8.60;99.90;;;;;;5080527;28;20438;-72
2021/12/12 12:35:59;;;;;;;9.77;9.30;;;8.60;99.90;;;;;;5077778;28;20862;-71
2021/12/12 12:39:07;;;;;;;9.53;9.13;;;8.30;99.90;;;;;;5076834;28;20451;-73
2021/12/12 12:45:35;;;;;;;9.20;8.80;;;8.20;99.90;;;;;;5087455;28;20562;-71
2021/12/12 12:48:56;;;;;;;9.80;9.33;;;8.20;99.90;;;;;;5085933;28;20536;-70
2021/12/12 12:51:49;;;;;;;9.50;9.13;;;8.40;99.90;;;;;;5063255;28;20449;-71
2021/12/12 12:54:30;;;;;;;9.90;9.50;;;8.70;99.90;;;;;;5087772;28;20447;-72
2021/12/12 12:57:09;;;;;;;9.70;9.20;;;8.60;99.60;;;;;;5087652;28;20458;-73
2021/12/12 12:59:50;;;;;;;9.93;9.43;;;8.70;99.70;;;;;;5087554;28;20973;-73
2021/12/12 13:02:20;;;;;;;9.43;9.03;;;8.70;99.60;;;;;;5088093;28;20458;-73
2021/12/12 13:05:11;;;;;;;10.10;9.60;;;8.90;99.40;;;;;;5087531;28;20486;-73
2021/12/12 13:08:29;;;;;;;10.00;9.63;;;9.10;99.10;;;;;;5087628;28;20442;-73
2021/12/12 13:11:00;;;;;;;9.10;8.60;;;9.00;98.80;;;;;;5087761;28;20455;-72
2021/12/12 13:13:30;;;;;;;9.53;9.13;;;9.10;98.80;;;;;;5087404;28;20451;-71
2021/12/12 13:16:02;;;;;;;9.00;8.50;;;8.70;98.60;;;;;;5087592;28;20454;-72
2021/12/12 13:18:40;;;;;;;10.93;10.33;;;8.80;99.20;;;;;;5087674;28;20445;-74
2021/12/12 13:21:17;;;;;;;9.30;8.60;;;8.70;99.10;;;;;;5087479;28;20825;-75
2021/12/12 13:24:08;;;;;;;9.40;8.97;;;8.70;99.40;;;;;;5071995;28;20506;-72
2021/12/12 13:26:57;;;;;;;8.97;8.57;;;8.70;99.50;;;;;;5067365;28;20815;-73